sensor_id;sensor_type;location;lat;lon;timestamp;P1;durP1;ratioP1;P2;durP2;ratioP2
50461;SDS011;45257;37.996;-122.328;2022-07-29T00:01:24;1.40;;;0.90;;
50461;SDS011;45257;37.996;-122.328;2022-07-29T00:03:51;1.60;;;0.80;;
50461;SDS011;45257;37.996;-122.328;2022-07-29T00:06:18;1.33;;;0.80;;
50461;SDS011;45257;37.996;-122.328;2022-07-29T00:08:46;3.03;;;1.10;;
50461;SDS011;45257;37.996;-122.328;2022-07-29T00:11:13;0.85;;;0.70;;
50461;SDS011;45257;37.996;-122.328;2022-07-29T00:13:40;1.67;;;0.95;;
50461;SDS011;45257;37.996;-122.328;2022-07-29T00:16:07;2.65;;;0.98;;
50461;SDS011;45257;37.996;-122.328;2022-07-29T00:18:33;2.47;;;1.15;;
50461;SDS011;45257;37.996;-122.328;2022-07-29T00:21:00;5.00;;;1.13;;
50461;SDS011;45257;37.996;-122.328;2022-07-29T00:23:27;6.30;;;1.35;;
50461;SDS011;45257;37.996;-122.328;2022-07-29T00:25:54;3.28;;;1.30;;
50461;SDS011;45257;37.996;-122.328;2022-07-29T00:28:23;2.33;;;1.35;;
50461;SDS011;45257;37.996;-122.328;2022-07-29T00:30:50;5.20;;;1.80;;
50461;SDS011;45257;37.996;-122.328;2022-07-29T00:33:17;3.97;;;1.30;;
50461;SDS011;45257;37.996;-122.328;2022-07-29T00:35:44;3.45;;;1.50;;
50461;SDS011;45257;37.996;-122.328;2022-07-29T00:38:12;2.22;;;1.17;;
50461;SDS011;45257;37.996;-122.328;2022-07-29T00:40:42;4.38;;;1.73;;
50461;SDS011;45257;37.996;-122.328;2022-07-29T00:43:10;3.13;;;1.30;;
50461;SDS011;45257;37.996;-122.328;2022-07-29T00:45:39;4.75;;;1.60;;
50461;SDS011;45257;37.996;-122.328;2022-07-29T00:48:07;3.92;;;1.55;;
50461;SDS011;45257;37.996;-122.328;2022-07-29T00:50:35;3.10;;;1.33;;
50461;SDS011;45257;37.996;-122.328;2022-07-29T00:53:03;2.10;;;1.33;;
50461;SDS011;45257;37.996;-122.328;2022-07-29T00:55:32;4.65;;;1.40;;
50461;SDS011;45257;37.996;-122.328;2022-07-29T00:58:00;3.33;;;1.35;;
50461;SDS011;45257;37.996;-122.328;2022-07-29T01:00:28;4.00;;;1.40;;
50461;SDS011;45257;37.996;-122.328;2022-07-29T01:02:55;4.85;;;1.40;;
50461;SDS011;45257;37.996;-122.328;2022-07-29T01:05:23;4.72;;;1.13;;
50461;SDS011;45257;37.996;-122.328;2022-07-29T01:07:53;3.17;;;1.13;;
50461;SDS011;45257;37.996;-122.328;2022-07-29T01:10:23;5.03;;;1.50;;
50461;SDS011;45257;37.996;-122.328;2022-07-29T01:12:51;3.13;;;1.25;;
50461;SDS011;45257;37.996;-122.328;2022-07-29T01:15:20;3.53;;;1.23;;
50461;SDS011;45257;37.996;-122.328;2022-07-29T01:20:51;4.10;;;1.20;;
50461;SDS011;45257;37.996;-122.328;2022-07-29T01:23:59;3.42;;;1.30;;
50461;SDS011;45257;37.996;-122.328;2022-07-29T01:30:04;5.13;;;1.13;;
50461;SDS011;45257;37.996;-122.328;2022-07-29T01:32:33;3.13;;;1.00;;
50461;SDS011;45257;37.996;-122.328;2022-07-29T01:43:44;3.20;;;1.30;;
50461;SDS011;45257;37.996;-122.328;2022-07-29T01:46:30;3.25;;;1.00;;
50461;SDS011;45257;37.996;-122.328;2022-07-29T01:51:49;5.97;;;1.52;;
50461;SDS011;45257;37.996;-122.328;2022-07-29T01:54:39;5.22;;;1.50;;
50461;SDS011;45257;37.996;-122.328;2022-07-29T01:57:15;7.60;;;1.70;;
50461;SDS011;45257;37.996;-122.328;2022-07-29T01:59:46;7.13;;;1.33;;
50461;SDS011;45257;37.996;-122.328;2022-07-29T02:02:15;3.08;;;1.20;;
50461;SDS011;45257;37.996;-122.328;2022-07-29T02:04:44;4.30;;;1.38;;
50461;SDS011;45257;37.996;-122.328;2022-07-29T02:07:18;5.25;;;1.20;;
50461;SDS011;45257;37.996;-122.328;2022-07-29T02:09:47;5.10;;;1.67;;
50461;SDS011;45257;37.996;-122.328;2022-07-29T02:12:17;4.55;;;1.40;;
50461;SDS011;45257;37.996;-122.328;2022-07-29T02:14:50;5.00;;;1.40;;
50461;SDS011;45257;37.996;-122.328;2022-07-29T02:17:24;3.55;;;1.30;;
50461;SDS011;45257;37.996;-122.328;2022-07-29T02:20:04;3.95;;;1.42;;
50461;SDS011;45257;37.996;-122.328;2022-07-29T02:22:33;4.38;;;1.38;;
50461;SDS011;45257;37.996;-122.328;2022-07-29T02:25:05;5.70;;;1.30;;
50461;SDS011;45257;37.996;-122.328;2022-07-29T02:27:36;7.22;;;1.60;;
50461;SDS011;45257;37.996;-122.328;2022-07-29T02:30:05;3.72;;;1.50;;
50461;SDS011;45257;37.996;-122.328;2022-07-29T02:32:35;2.90;;;1.08;;
50461;SDS011;45257;37.996;-122.328;2022-07-29T02:35:06;4.43;;;1.40;;
50461;SDS011;45257;37.996;-122.328;2022-07-29T02:37:35;2.03;;;1.10;;
50461;SDS011;45257;37.996;-122.328;2022-07-29T02:40:04;4.80;;;1.60;;
50461;SDS011;45257;37.996;-122.328;2022-07-29T02:42:36;6.00;;;1.42;;
50461;SDS011;45257;37.996;-122.328;2022-07-29T02:45:06;4.53;;;1.30;;
50461;SDS011;45257;37.996;-122.328;2022-07-29T02:50:57;3.05;;;1.23;;
50461;SDS011;45257;37.996;-122.328;2022-07-29T02:53:13;4.40;;;1.30;;
50461;SDS011;45257;37.996;-122.328;2022-07-29T02:55:54;5.43;;;1.27;;
50461;SDS011;45257;37.996;-122.328;2022-07-29T02:58:29;5.00;;;1.25;;
50461;SDS011;45257;37.996;-122.328;2022-07-29T03:01:01;4.05;;;1.35;;
50461;SDS011;45257;37.996;-122.328;2022-07-29T03:03:40;2.40;;;1.10;;
50461;SDS011;45257;37.996;-122.328;2022-07-29T03:06:13;3.42;;;1.13;;
50461;SDS011;45257;37.996;-122.328;2022-07-29T03:08:42;4.38;;;1.25;;
50461;SDS011;45257;37.996;-122.328;2022-07-29T03:11:12;2.38;;;1.20;;
50461;SDS011;45257;37.996;-122.328;2022-07-29T03:13:40;4.63;;;1.42;;
50461;SDS011;45257;37.996;-122.328;2022-07-29T03:16:08;2.33;;;1.17;;
50461;SDS011;45257;37.996;-122.328;2022-07-29T03:18:36;2.47;;;1.05;;
50461;SDS011;45257;37.996;-122.328;2022-07-29T03:21:04;3.35;;;1.30;;
50461;SDS011;45257;37.996;-122.328;2022-07-29T03:23:32;4.35;;;1.10;;
50461;SDS011;45257;37.996;-122.328;2022-07-29T03:25:59;3.92;;;1.20;;
50461;SDS011;45257;37.996;-122.328;2022-07-29T03:28:26;2.72;;;1.27;;
50461;SDS011;45257;37.996;-122.328;2022-07-29T03:30:53;4.57;;;1.30;;
50461;SDS011;45257;37.996;-122.328;2022-07-29T03:33:20;2.20;;;1.27;;
50461;SDS011;45257;37.996;-122.328;2022-07-29T03:35:47;3.03;;;1.25;;
50461;SDS011;45257;37.996;-122.328;2022-07-29T03:38:14;4.00;;;1.30;;
50461;SDS011;45257;37.996;-122.328;2022-07-29T03:40:46;3.20;;;1.15;;
50461;SDS011;45257;37.996;-122.328;2022-07-29T03:43:23;3.55;;;1.25;;
50461;SDS011;45257;37.996;-122.328;2022-07-29T03:45:54;2.35;;;1.10;;
50461;SDS011;45257;37.996;-122.328;2022-07-29T03:48:23;2.95;;;1.00;;
50461;SDS011;45257;37.996;-122.328;2022-07-29T03:50:51;6.15;;;1.30;;
50461;SDS011;45257;37.996;-122.328;2022-07-29T03:53:19;11.93;;;1.70;;
50461;SDS011;45257;37.996;-122.328;2022-07-29T03:55:47;18.15;;;2.60;;
50461;SDS011;45257;37.996;-122.328;2022-07-29T03:58:19;17.65;;;2.25;;
50461;SDS011;45257;37.996;-122.328;2022-07-29T04:00:47;19.42;;;2.10;;
50461;SDS011;45257;37.996;-122.328;2022-07-29T04:03:15;11.43;;;1.75;;
50461;SDS011;45257;37.996;-122.328;2022-07-29T04:05:42;20.55;;;2.10;;
50461;SDS011;45257;37.996;-122.328;2022-07-29T04:08:09;15.57;;;1.65;;
50461;SDS011;45257;37.996;-122.328;2022-07-29T04:10:36;11.65;;;2.00;;
50461;SDS011;45257;37.996;-122.328;2022-07-29T04:13:04;12.13;;;1.98;;
50461;SDS011;45257;37.996;-122.328;2022-07-29T04:15:31;14.38;;;2.47;;
50461;SDS011;45257;37.996;-122.328;2022-07-29T04:17:58;9.60;;;2.00;;
50461;SDS011;45257;37.996;-122.328;2022-07-29T04:20:25;14.20;;;2.25;;
50461;SDS011;45257;37.996;-122.328;2022-07-29T04:22:52;12.18;;;2.17;;
50461;SDS011;45257;37.996;-122.328;2022-07-29T04:25:19;22.52;;;2.78;;
50461;SDS011;45257;37.996;-122.328;2022-07-29T04:27:46;11.00;;;1.52;;
50461;SDS011;45257;37.996;-122.328;2022-07-29T04:30:28;8.23;;;1.83;;
50461;SDS011;45257;37.996;-122.328;2022-07-29T04:32:56;10.70;;;1.80;;
50461;SDS011;45257;37.996;-122.328;2022-07-29T04:35:24;12.98;;;2.03;;
50461;SDS011;45257;37.996;-122.328;2022-07-29T04:37:51;9.85;;;1.65;;
50461;SDS011;45257;37.996;-122.328;2022-07-29T04:40:18;9.93;;;1.98;;
50461;SDS011;45257;37.996;-122.328;2022-07-29T04:42:45;10.13;;;1.70;;
50461;SDS011;45257;37.996;-122.328;2022-07-29T04:45:12;11.50;;;1.90;;
50461;SDS011;45257;37.996;-122.328;2022-07-29T04:47:39;9.05;;;2.17;;
50461;SDS011;45257;37.996;-122.328;2022-07-29T04:50:07;10.27;;;1.65;;
50461;SDS011;45257;37.996;-122.328;2022-07-29T04:52:35;7.38;;;1.55;;
50461;SDS011;45257;37.996;-122.328;2022-07-29T04:55:03;5.38;;;1.20;;
50461;SDS011;45257;37.996;-122.328;2022-07-29T04:57:31;11.55;;;1.77;;
50461;SDS011;45257;37.996;-122.328;2022-07-29T04:59:59;8.90;;;1.30;;
50461;SDS011;45257;37.996;-122.328;2022-07-29T05:02:26;4.07;;;1.10;;
50461;SDS011;45257;37.996;-122.328;2022-07-29T05:04:53;4.90;;;1.20;;
50461;SDS011;45257;37.996;-122.328;2022-07-29T05:07:20;5.18;;;1.70;;
50461;SDS011;45257;37.996;-122.328;2022-07-29T05:09:46;6.95;;;1.42;;
50461;SDS011;45257;37.996;-122.328;2022-07-29T05:12:14;4.40;;;1.40;;
50461;SDS011;45257;37.996;-122.328;2022-07-29T05:14:41;7.63;;;1.20;;
50461;SDS011;45257;37.996;-122.328;2022-07-29T05:17:08;5.90;;;1.77;;
50461;SDS011;45257;37.996;-122.328;2022-07-29T05:19:35;4.30;;;1.13;;
50461;SDS011;45257;37.996;-122.328;2022-07-29T05:22:02;6.20;;;1.30;;
50461;SDS011;45257;37.996;-122.328;2022-07-29T05:24:29;7.40;;;1.13;;
50461;SDS011;45257;37.996;-122.328;2022-07-29T05:26:56;3.83;;;0.90;;
50461;SDS011;45257;37.996;-122.328;2022-07-29T05:29:23;5.63;;;1.20;;
50461;SDS011;45257;37.996;-122.328;2022-07-29T05:31:50;5.25;;;1.20;;
50461;SDS011;45257;37.996;-122.328;2022-07-29T05:34:18;7.28;;;1.65;;
50461;SDS011;45257;37.996;-122.328;2022-07-29T05:36:45;5.32;;;1.38;;
50461;SDS011;45257;37.996;-122.328;2022-07-29T05:39:12;5.22;;;0.98;;
50461;SDS011;45257;37.996;-122.328;2022-07-29T05:41:39;6.15;;;1.35;;
50461;SDS011;45257;37.996;-122.328;2022-07-29T05:44:06;4.50;;;1.30;;
50461;SDS011;45257;37.996;-122.328;2022-07-29T05:46:33;7.15;;;1.45;;
50461;SDS011;45257;37.996;-122.328;2022-07-29T05:49:00;3.80;;;0.80;;
50461;SDS011;45257;37.996;-122.328;2022-07-29T05:51:28;7.38;;;1.30;;
50461;SDS011;45257;37.996;-122.328;2022-07-29T05:53:55;3.65;;;0.80;;
50461;SDS011;45257;37.996;-122.328;2022-07-29T05:56:22;5.22;;;1.13;;
50461;SDS011;45257;37.996;-122.328;2022-07-29T05:58:49;3.70;;;0.98;;
50461;SDS011;45257;37.996;-122.328;2022-07-29T06:01:16;3.97;;;1.35;;
50461;SDS011;45257;37.996;-122.328;2022-07-29T06:03:44;5.15;;;0.90;;
50461;SDS011;45257;37.996;-122.328;2022-07-29T06:06:11;3.53;;;0.98;;
50461;SDS011;45257;37.996;-122.328;2022-07-29T06:08:38;4.28;;;1.27;;
50461;SDS011;45257;37.996;-122.328;2022-07-29T06:11:05;10.40;;;1.58;;
50461;SDS011;45257;37.996;-122.328;2022-07-29T06:13:33;5.75;;;1.10;;
50461;SDS011;45257;37.996;-122.328;2022-07-29T06:16:02;7.88;;;1.25;;
50461;SDS011;45257;37.996;-122.328;2022-07-29T06:18:29;7.90;;;1.65;;
50461;SDS011;45257;37.996;-122.328;2022-07-29T06:20:56;9.20;;;1.25;;
50461;SDS011;45257;37.996;-122.328;2022-07-29T06:23:23;4.93;;;1.42;;
50461;SDS011;45257;37.996;-122.328;2022-07-29T06:25:51;5.80;;;1.20;;
50461;SDS011;45257;37.996;-122.328;2022-07-29T06:28:18;8.98;;;1.58;;
50461;SDS011;45257;37.996;-122.328;2022-07-29T06:30:45;10.65;;;1.10;;
50461;SDS011;45257;37.996;-122.328;2022-07-29T06:33:15;3.42;;;0.88;;
50461;SDS011;45257;37.996;-122.328;2022-07-29T06:35:44;5.05;;;0.95;;
50461;SDS011;45257;37.996;-122.328;2022-07-29T06:38:12;3.63;;;1.15;;
50461;SDS011;45257;37.996;-122.328;2022-07-29T06:40:43;6.10;;;0.98;;
50461;SDS011;45257;37.996;-122.328;2022-07-29T06:43:33;6.93;;;1.10;;
50461;SDS011;45257;37.996;-122.328;2022-07-29T06:46:07;4.78;;;1.17;;
50461;SDS011;45257;37.996;-122.328;2022-07-29T06:48:36;8.00;;;1.20;;
50461;SDS011;45257;37.996;-122.328;2022-07-29T06:51:05;6.93;;;1.10;;
50461;SDS011;45257;37.996;-122.328;2022-07-29T06:53:33;5.65;;;1.10;;
50461;SDS011;45257;37.996;-122.328;2022-07-29T06:56:02;10.85;;;1.23;;
50461;SDS011;45257;37.996;-122.328;2022-07-29T06:58:33;4.20;;;1.35;;
50461;SDS011;45257;37.996;-122.328;2022-07-29T07:01:02;5.22;;;1.10;;
50461;SDS011;45257;37.996;-122.328;2022-07-29T07:03:31;3.08;;;0.88;;
50461;SDS011;45257;37.996;-122.328;2022-07-29T07:05:58;4.50;;;0.90;;
50461;SDS011;45257;37.996;-122.328;2022-07-29T07:08:25;4.57;;;1.00;;
50461;SDS011;45257;37.996;-122.328;2022-07-29T07:10:53;5.25;;;0.88;;
50461;SDS011;45257;37.996;-122.328;2022-07-29T07:13:20;5.63;;;0.82;;
50461;SDS011;45257;37.996;-122.328;2022-07-29T07:15:47;6.13;;;0.95;;
50461;SDS011;45257;37.996;-122.328;2022-07-29T07:18:14;7.55;;;1.63;;
50461;SDS011;45257;37.996;-122.328;2022-07-29T07:20:42;4.30;;;1.10;;
50461;SDS011;45257;37.996;-122.328;2022-07-29T07:23:10;5.22;;;1.02;;
50461;SDS011;45257;37.996;-122.328;2022-07-29T07:25:36;3.03;;;1.23;;
50461;SDS011;45257;37.996;-122.328;2022-07-29T07:28:03;2.45;;;0.77;;
50461;SDS011;45257;37.996;-122.328;2022-07-29T07:30:30;4.07;;;0.73;;
50461;SDS011;45257;37.996;-122.328;2022-07-29T07:32:57;3.17;;;0.93;;
50461;SDS011;45257;37.996;-122.328;2022-07-29T07:35:26;7.72;;;1.23;;
50461;SDS011;45257;37.996;-122.328;2022-07-29T07:37:55;5.72;;;0.88;;
50461;SDS011;45257;37.996;-122.328;2022-07-29T07:40:22;4.80;;;1.00;;
50461;SDS011;45257;37.996;-122.328;2022-07-29T07:42:49;4.45;;;1.25;;
50461;SDS011;45257;37.996;-122.328;2022-07-29T07:45:16;7.10;;;1.20;;
50461;SDS011;45257;37.996;-122.328;2022-07-29T07:47:43;5.55;;;1.13;;
50461;SDS011;45257;37.996;-122.328;2022-07-29T07:50:11;6.05;;;0.98;;
50461;SDS011;45257;37.996;-122.328;2022-07-29T07:52:50;6.45;;;1.20;;
50461;SDS011;45257;37.996;-122.328;2022-07-29T07:55:23;3.58;;;0.90;;
50461;SDS011;45257;37.996;-122.328;2022-07-29T07:57:51;6.28;;;1.10;;
50461;SDS011;45257;37.996;-122.328;2022-07-29T08:00:20;7.65;;;1.10;;
50461;SDS011;45257;37.996;-122.328;2022-07-29T08:02:47;4.72;;;1.67;;
50461;SDS011;45257;37.996;-122.328;2022-07-29T08:05:15;2.92;;;0.90;;
50461;SDS011;45257;37.996;-122.328;2022-07-29T08:07:43;3.80;;;0.80;;
50461;SDS011;45257;37.996;-122.328;2022-07-29T08:10:13;6.35;;;0.90;;
50461;SDS011;45257;37.996;-122.328;2022-07-29T08:13:03;4.80;;;0.82;;
50461;SDS011;45257;37.996;-122.328;2022-07-29T08:15:34;2.20;;;0.93;;
50461;SDS011;45257;37.996;-122.328;2022-07-29T08:18:02;5.68;;;1.08;;
50461;SDS011;45257;37.996;-122.328;2022-07-29T08:20:29;5.43;;;1.08;;
50461;SDS011;45257;37.996;-122.328;2022-07-29T08:22:58;7.30;;;1.30;;
50461;SDS011;45257;37.996;-122.328;2022-07-29T08:25:25;4.80;;;0.82;;
50461;SDS011;45257;37.996;-122.328;2022-07-29T08:27:52;4.20;;;1.00;;
50461;SDS011;45257;37.996;-122.328;2022-07-29T08:30:19;4.32;;;0.80;;
50461;SDS011;45257;37.996;-122.328;2022-07-29T08:32:47;8.85;;;1.10;;
50461;SDS011;45257;37.996;-122.328;2022-07-29T08:35:18;5.00;;;1.00;;
50461;SDS011;45257;37.996;-122.328;2022-07-29T08:37:47;6.93;;;1.05;;
50461;SDS011;45257;37.996;-122.328;2022-07-29T08:40:14;10.40;;;1.45;;
50461;SDS011;45257;37.996;-122.328;2022-07-29T08:42:41;13.68;;;1.40;;
50461;SDS011;45257;37.996;-122.328;2022-07-29T08:45:08;11.07;;;1.13;;
50461;SDS011;45257;37.996;-122.328;2022-07-29T08:47:36;3.97;;;0.82;;
50461;SDS011;45257;37.996;-122.328;2022-07-29T08:50:08;7.25;;;1.20;;
50461;SDS011;45257;37.996;-122.328;2022-07-29T08:52:39;4.50;;;1.10;;
50461;SDS011;45257;37.996;-122.328;2022-07-29T08:55:08;7.97;;;0.88;;
50461;SDS011;45257;37.996;-122.328;2022-07-29T08:57:35;3.70;;;0.70;;
50461;SDS011;45257;37.996;-122.328;2022-07-29T09:00:06;6.38;;;0.95;;
50461;SDS011;45257;37.996;-122.328;2022-07-29T09:02:40;5.68;;;1.10;;
50461;SDS011;45257;37.996;-122.328;2022-07-29T09:05:13;3.45;;;0.70;;
50461;SDS011;45257;37.996;-122.328;2022-07-29T09:07:40;3.90;;;0.80;;
50461;SDS011;45257;37.996;-122.328;2022-07-29T09:10:09;5.28;;;0.98;;
50461;SDS011;45257;37.996;-122.328;2022-07-29T09:12:36;3.65;;;0.75;;
50461;SDS011;45257;37.996;-122.328;2022-07-29T09:15:03;2.80;;;0.95;;
50461;SDS011;45257;37.996;-122.328;2022-07-29T09:17:49;6.88;;;1.08;;
50461;SDS011;45257;37.996;-122.328;2022-07-29T09:20:17;4.63;;;0.80;;
50461;SDS011;45257;37.996;-122.328;2022-07-29T09:22:47;9.60;;;0.98;;
50461;SDS011;45257;37.996;-122.328;2022-07-29T09:25:36;2.75;;;0.73;;
50461;SDS011;45257;37.996;-122.328;2022-07-29T09:28:06;1.98;;;0.70;;
50461;SDS011;45257;37.996;-122.328;2022-07-29T09:30:51;3.13;;;0.60;;
50461;SDS011;45257;37.996;-122.328;2022-07-29T09:33:21;8.23;;;0.95;;
50461;SDS011;45257;37.996;-122.328;2022-07-29T09:38:46;2.40;;;0.70;;
50461;SDS011;45257;37.996;-122.328;2022-07-29T09:41:27;3.10;;;0.73;;
50461;SDS011;45257;37.996;-122.328;2022-07-29T09:43:55;2.75;;;0.80;;
50461;SDS011;45257;37.996;-122.328;2022-07-29T09:46:24;4.57;;;0.95;;
50461;SDS011;45257;37.996;-122.328;2022-07-29T09:49:13;5.78;;;0.93;;
50461;SDS011;45257;37.996;-122.328;2022-07-29T09:51:39;4.13;;;0.90;;
50461;SDS011;45257;37.996;-122.328;2022-07-29T09:54:22;5.93;;;0.98;;
50461;SDS011;45257;37.996;-122.328;2022-07-29T09:56:52;2.88;;;0.73;;
50461;SDS011;45257;37.996;-122.328;2022-07-29T09:59:20;3.58;;;0.65;;
50461;SDS011;45257;37.996;-122.328;2022-07-29T10:01:51;2.75;;;0.63;;
50461;SDS011;45257;37.996;-122.328;2022-07-29T10:04:19;1.17;;;0.80;;
50461;SDS011;45257;37.996;-122.328;2022-07-29T10:06:58;4.15;;;0.80;;
50461;SDS011;45257;37.996;-122.328;2022-07-29T10:12:07;3.47;;;0.73;;
50461;SDS011;45257;37.996;-122.328;2022-07-29T10:14:39;1.33;;;0.40;;
50461;SDS011;45257;37.996;-122.328;2022-07-29T10:17:08;4.28;;;0.90;;
50461;SDS011;45257;37.996;-122.328;2022-07-29T10:19:36;1.85;;;0.52;;
50461;SDS011;45257;37.996;-122.328;2022-07-29T10:22:05;3.63;;;0.80;;
50461;SDS011;45257;37.996;-122.328;2022-07-29T10:24:34;1.20;;;0.50;;
50461;SDS011;45257;37.996;-122.328;2022-07-29T10:27:03;1.88;;;0.60;;
50461;SDS011;45257;37.996;-122.328;2022-07-29T10:29:33;2.55;;;0.68;;
50461;SDS011;45257;37.996;-122.328;2022-07-29T10:37:53;0.63;;;0.50;;
50461;SDS011;45257;37.996;-122.328;2022-07-29T10:46:44;2.70;;;0.68;;
50461;SDS011;45257;37.996;-122.328;2022-07-29T10:49:18;3.83;;;0.52;;
50461;SDS011;45257;37.996;-122.328;2022-07-29T10:57:11;3.22;;;0.65;;
50461;SDS011;45257;37.996;-122.328;2022-07-29T11:10:51;2.05;;;0.60;;
50461;SDS011;45257;37.996;-122.328;2022-07-29T11:16:20;1.08;;;0.70;;
50461;SDS011;45257;37.996;-122.328;2022-07-29T11:21:37;1.45;;;0.68;;
50461;SDS011;45257;37.996;-122.328;2022-07-29T11:24:13;2.15;;;0.70;;
50461;SDS011;45257;37.996;-122.328;2022-07-29T11:29:52;1.17;;;0.63;;
50461;SDS011;45257;37.996;-122.328;2022-07-29T11:32:20;3.63;;;0.60;;
50461;SDS011;45257;37.996;-122.328;2022-07-29T11:43:53;0.70;;;0.30;;
50461;SDS011;45257;37.996;-122.328;2022-07-29T11:49:18;2.83;;;0.57;;
50461;SDS011;45257;37.996;-122.328;2022-07-29T11:51:54;0.98;;;0.35;;
50461;SDS011;45257;37.996;-122.328;2022-07-29T11:54:26;1.75;;;0.40;;
50461;SDS011;45257;37.996;-122.328;2022-07-29T11:56:59;1.50;;;0.50;;
50461;SDS011;45257;37.996;-122.328;2022-07-29T11:59:27;3.63;;;0.60;;
50461;SDS011;45257;37.996;-122.328;2022-07-29T12:01:55;1.33;;;0.40;;
50461;SDS011;45257;37.996;-122.328;2022-07-29T12:04:25;1.35;;;0.45;;
50461;SDS011;45257;37.996;-122.328;2022-07-29T12:06:53;1.27;;;0.55;;
50461;SDS011;45257;37.996;-122.328;2022-07-29T12:09:22;2.08;;;0.40;;
50461;SDS011;45257;37.996;-122.328;2022-07-29T12:11:55;1.25;;;0.60;;
50461;SDS011;45257;37.996;-122.328;2022-07-29T12:14:31;1.30;;;0.32;;
50461;SDS011;45257;37.996;-122.328;2022-07-29T12:16:59;1.55;;;0.57;;
50461;SDS011;45257;37.996;-122.328;2022-07-29T12:19:26;1.50;;;0.43;;
50461;SDS011;45257;37.996;-122.328;2022-07-29T12:21:54;1.20;;;0.38;;
50461;SDS011;45257;37.996;-122.328;2022-07-29T12:24:23;0.80;;;0.50;;
50461;SDS011;45257;37.996;-122.328;2022-07-29T12:26:51;0.90;;;0.50;;
50461;SDS011;45257;37.996;-122.328;2022-07-29T12:29:19;2.13;;;0.30;;
50461;SDS011;45257;37.996;-122.328;2022-07-29T12:31:50;1.05;;;0.40;;
50461;SDS011;45257;37.996;-122.328;2022-07-29T12:34:23;2.33;;;0.60;;
50461;SDS011;45257;37.996;-122.328;2022-07-29T12:36:52;1.35;;;0.50;;
50461;SDS011;45257;37.996;-122.328;2022-07-29T12:39:19;0.95;;;0.50;;
50461;SDS011;45257;37.996;-122.328;2022-07-29T12:41:46;3.78;;;0.57;;
50461;SDS011;45257;37.996;-122.328;2022-07-29T12:44:13;2.67;;;0.50;;
50461;SDS011;45257;37.996;-122.328;2022-07-29T12:46:40;2.22;;;0.60;;
50461;SDS011;45257;37.996;-122.328;2022-07-29T12:49:07;1.23;;;0.45;;
50461;SDS011;45257;37.996;-122.328;2022-07-29T12:51:36;1.23;;;0.80;;
50461;SDS011;45257;37.996;-122.328;2022-07-29T12:54:06;1.30;;;0.60;;
50461;SDS011;45257;37.996;-122.328;2022-07-29T12:56:41;1.80;;;0.40;;
50461;SDS011;45257;37.996;-122.328;2022-07-29T12:59:13;0.50;;;0.38;;
50461;SDS011;45257;37.996;-122.328;2022-07-29T13:01:43;0.88;;;0.60;;
50461;SDS011;45257;37.996;-122.328;2022-07-29T13:04:24;0.98;;;0.40;;
50461;SDS011;45257;37.996;-122.328;2022-07-29T13:07:04;3.53;;;0.65;;
50461;SDS011;45257;37.996;-122.328;2022-07-29T13:12:11;2.10;;;0.68;;
50461;SDS011;45257;37.996;-122.328;2022-07-29T13:14:42;2.03;;;0.50;;
50461;SDS011;45257;37.996;-122.328;2022-07-29T13:19:52;1.13;;;0.40;;
50461;SDS011;45257;37.996;-122.328;2022-07-29T13:22:40;0.47;;;0.40;;
50461;SDS011;45257;37.996;-122.328;2022-07-29T13:25:08;1.35;;;0.50;;
50461;SDS011;45257;37.996;-122.328;2022-07-29T13:27:37;5.00;;;0.50;;
50461;SDS011;45257;37.996;-122.328;2022-07-29T13:30:05;0.95;;;0.60;;
50461;SDS011;45257;37.996;-122.328;2022-07-29T13:32:35;0.47;;;0.30;;
50461;SDS011;45257;37.996;-122.328;2022-07-29T13:35:06;0.57;;;0.40;;
50461;SDS011;45257;37.996;-122.328;2022-07-29T13:37:35;0.85;;;0.50;;
50461;SDS011;45257;37.996;-122.328;2022-07-29T13:40:05;0.57;;;0.40;;
50461;SDS011;45257;37.996;-122.328;2022-07-29T13:42:34;0.95;;;0.50;;
50461;SDS011;45257;37.996;-122.328;2022-07-29T13:45:01;0.50;;;0.30;;
50461;SDS011;45257;37.996;-122.328;2022-07-29T13:47:29;1.23;;;0.50;;
50461;SDS011;45257;37.996;-122.328;2022-07-29T13:49:56;0.45;;;0.40;;
50461;SDS011;45257;37.996;-122.328;2022-07-29T13:52:23;0.77;;;0.40;;
50461;SDS011;45257;37.996;-122.328;2022-07-29T13:54:50;0.40;;;0.40;;
50461;SDS011;45257;37.996;-122.328;2022-07-29T13:57:17;1.05;;;0.65;;
50461;SDS011;45257;37.996;-122.328;2022-07-29T13:59:44;0.40;;;0.40;;
50461;SDS011;45257;37.996;-122.328;2022-07-29T14:02:11;0.30;;;0.30;;
50461;SDS011;45257;37.996;-122.328;2022-07-29T14:04:38;1.83;;;0.40;;
50461;SDS011;45257;37.996;-122.328;2022-07-29T14:07:05;2.85;;;0.55;;
50461;SDS011;45257;37.996;-122.328;2022-07-29T14:09:32;0.68;;;0.30;;
50461;SDS011;45257;37.996;-122.328;2022-07-29T14:11:59;1.98;;;0.50;;
50461;SDS011;45257;37.996;-122.328;2022-07-29T14:14:28;1.30;;;0.50;;
50461;SDS011;45257;37.996;-122.328;2022-07-29T14:16:56;1.08;;;0.40;;
50461;SDS011;45257;37.996;-122.328;2022-07-29T14:19:24;0.50;;;0.40;;
50461;SDS011;45257;37.996;-122.328;2022-07-29T14:21:51;0.85;;;0.40;;
50461;SDS011;45257;37.996;-122.328;2022-07-29T14:24:18;1.02;;;0.52;;
50461;SDS011;45257;37.996;-122.328;2022-07-29T14:26:45;0.57;;;0.35;;
50461;SDS011;45257;37.996;-122.328;2022-07-29T14:29:12;5.43;;;0.50;;
50461;SDS011;45257;37.996;-122.328;2022-07-29T14:31:39;1.63;;;0.50;;
50461;SDS011;45257;37.996;-122.328;2022-07-29T14:34:07;1.00;;;0.30;;
50461;SDS011;45257;37.996;-122.328;2022-07-29T14:36:34;2.13;;;0.30;;
50461;SDS011;45257;37.996;-122.328;2022-07-29T14:39:01;5.78;;;0.60;;
50461;SDS011;45257;37.996;-122.328;2022-07-29T14:41:28;3.25;;;0.60;;
50461;SDS011;45257;37.996;-122.328;2022-07-29T14:43:55;1.35;;;0.50;;
50461;SDS011;45257;37.996;-122.328;2022-07-29T14:46:26;0.97;;;0.50;;
50461;SDS011;45257;37.996;-122.328;2022-07-29T14:48:53;2.17;;;0.30;;
50461;SDS011;45257;37.996;-122.328;2022-07-29T14:51:20;1.17;;;0.32;;
50461;SDS011;45257;37.996;-122.328;2022-07-29T14:53:47;3.50;;;0.60;;
50461;SDS011;45257;37.996;-122.328;2022-07-29T14:56:14;3.88;;;0.52;;
50461;SDS011;45257;37.996;-122.328;2022-07-29T14:58:41;1.20;;;0.35;;
50461;SDS011;45257;37.996;-122.328;2022-07-29T15:01:08;5.60;;;0.68;;
50461;SDS011;45257;37.996;-122.328;2022-07-29T15:03:35;1.00;;;0.30;;
50461;SDS011;45257;37.996;-122.328;2022-07-29T15:06:01;1.95;;;0.40;;
50461;SDS011;45257;37.996;-122.328;2022-07-29T15:08:28;3.22;;;0.50;;
50461;SDS011;45257;37.996;-122.328;2022-07-29T15:10:56;6.07;;;0.73;;
50461;SDS011;45257;37.996;-122.328;2022-07-29T15:13:24;4.90;;;0.70;;
50461;SDS011;45257;37.996;-122.328;2022-07-29T15:15:52;2.28;;;0.70;;
50461;SDS011;45257;37.996;-122.328;2022-07-29T15:18:18;3.38;;;0.60;;
50461;SDS011;45257;37.996;-122.328;2022-07-29T15:20:45;1.80;;;0.60;;
50461;SDS011;45257;37.996;-122.328;2022-07-29T15:23:12;2.80;;;0.75;;
50461;SDS011;45257;37.996;-122.328;2022-07-29T15:25:39;1.80;;;0.70;;
50461;SDS011;45257;37.996;-122.328;2022-07-29T15:28:06;2.97;;;0.60;;
50461;SDS011;45257;37.996;-122.328;2022-07-29T15:30:33;2.22;;;0.45;;
50461;SDS011;45257;37.996;-122.328;2022-07-29T15:33:06;0.98;;;0.47;;
50461;SDS011;45257;37.996;-122.328;2022-07-29T15:35:35;8.82;;;0.98;;
50461;SDS011;45257;37.996;-122.328;2022-07-29T15:38:02;3.50;;;0.77;;
50461;SDS011;45257;37.996;-122.328;2022-07-29T15:40:30;6.07;;;0.90;;
50461;SDS011;45257;37.996;-122.328;2022-07-29T15:42:57;13.85;;;1.23;;